sensor_id;sensor_type;location;lat;lon;timestamp;P1;durP1;ratioP1;P2;durP2;ratioP2
11123;SDS011;5616;42.692;23.312;2023-04-01T00:01:40;23.83;;;14.10;;
11123;SDS011;5616;42.692;23.312;2023-04-01T00:04:07;19.80;;;13.97;;
11123;SDS011;5616;42.692;23.312;2023-04-01T00:06:34;21.53;;;12.47;;
11123;SDS011;5616;42.692;23.312;2023-04-01T00:09:00;22.67;;;12.87;;
11123;SDS011;5616;42.692;23.312;2023-04-01T00:11:27;18.27;;;12.33;;
11123;SDS011;5616;42.692;23.312;2023-04-01T00:13:56;18.43;;;11.30;;
11123;SDS011;5616;42.692;23.312;2023-04-01T00:16:22;19.20;;;12.07;;
11123;SDS011;5616;42.692;23.312;2023-04-01T00:18:50;22.33;;;12.33;;
11123;SDS011;5616;42.692;23.312;2023-04-01T00:21:17;15.93;;;11.43;;
11123;SDS011;5616;42.692;23.312;2023-04-01T00:23:45;18.17;;;10.70;;
11123;SDS011;5616;42.692;23.312;2023-04-01T00:26:12;18.20;;;10.70;;
11123;SDS011;5616;42.692;23.312;2023-04-01T00:28:40;13.07;;;9.67;;
11123;SDS011;5616;42.692;23.312;2023-04-01T00:31:09;19.50;;;10.17;;
11123;SDS011;5616;42.692;23.312;2023-04-01T00:33:36;14.97;;;9.50;;
11123;SDS011;5616;42.692;23.312;2023-04-01T00:36:06;17.80;;;9.67;;
11123;SDS011;5616;42.692;23.312;2023-04-01T00:38:35;13.37;;;7.77;;
11123;SDS011;5616;42.692;23.312;2023-04-01T00:41:02;14.10;;;9.10;;
11123;SDS011;5616;42.692;23.312;2023-04-01T00:43:30;16.67;;;8.60;;
11123;SDS011;5616;42.692;23.312;2023-04-01T00:45:57;18.47;;;8.27;;
11123;SDS011;5616;42.692;23.312;2023-04-01T00:48:26;16.93;;;8.40;;
11123;SDS011;5616;42.692;23.312;2023-04-01T00:50:56;16.17;;;8.20;;
11123;SDS011;5616;42.692;23.312;2023-04-01T00:53:26;14.43;;;8.63;;
11123;SDS011;5616;42.692;23.312;2023-04-01T00:55:55;15.77;;;9.10;;
11123;SDS011;5616;42.692;23.312;2023-04-01T00:58:27;14.43;;;9.17;;
11123;SDS011;5616;42.692;23.312;2023-04-01T01:00:57;11.77;;;8.93;;
11123;SDS011;5616;42.692;23.312;2023-04-01T01:03:27;13.30;;;10.10;;
11123;SDS011;5616;42.692;23.312;2023-04-01T01:05:58;13.00;;;8.50;;
11123;SDS011;5616;42.692;23.312;2023-04-01T01:08:39;13.07;;;8.33;;
11123;SDS011;5616;42.692;23.312;2023-04-01T01:11:22;13.77;;;9.30;;
11123;SDS011;5616;42.692;23.312;2023-04-01T01:13:56;15.90;;;9.47;;
11123;SDS011;5616;42.692;23.312;2023-04-01T01:16:29;15.53;;;9.70;;
11123;SDS011;5616;42.692;23.312;2023-04-01T01:19:00;15.73;;;10.37;;
11123;SDS011;5616;42.692;23.312;2023-04-01T01:21:48;14.93;;;9.30;;
11123;SDS011;5616;42.692;23.312;2023-04-01T01:24:33;12.97;;;9.10;;
11123;SDS011;5616;42.692;23.312;2023-04-01T01:27:19;17.10;;;9.17;;
11123;SDS011;5616;42.692;23.312;2023-04-01T01:29:57;13.80;;;8.20;;
11123;SDS011;5616;42.692;23.312;2023-04-01T01:32:44;12.97;;;8.27;;
11123;SDS011;5616;42.692;23.312;2023-04-01T01:35:38;15.00;;;8.27;;
11123;SDS011;5616;42.692;23.312;2023-04-01T01:38:14;12.20;;;7.50;;
11123;SDS011;5616;42.692;23.312;2023-04-01T01:40:49;10.33;;;7.13;;
11123;SDS011;5616;42.692;23.312;2023-04-01T01:43:21;10.53;;;6.93;;
11123;SDS011;5616;42.692;23.312;2023-04-01T01:45:53;11.27;;;6.60;;
11123;SDS011;5616;42.692;23.312;2023-04-01T01:48:22;12.00;;;6.17;;
11123;SDS011;5616;42.692;23.312;2023-04-01T01:50:52;10.20;;;6.80;;
11123;SDS011;5616;42.692;23.312;2023-04-01T01:53:19;10.13;;;6.37;;
11123;SDS011;5616;42.692;23.312;2023-04-01T01:55:46;10.43;;;6.23;;
11123;SDS011;5616;42.692;23.312;2023-04-01T01:58:16;11.07;;;6.50;;
11123;SDS011;5616;42.692;23.312;2023-04-01T02:00:49;9.40;;;5.93;;
11123;SDS011;5616;42.692;23.312;2023-04-01T02:03:19;9.87;;;5.93;;
11123;SDS011;5616;42.692;23.312;2023-04-01T02:05:52;8.27;;;5.63;;
11123;SDS011;5616;42.692;23.312;2023-04-01T02:08:22;10.20;;;5.77;;
11123;SDS011;5616;42.692;23.312;2023-04-01T02:10:55;9.97;;;5.53;;
11123;SDS011;5616;42.692;23.312;2023-04-01T02:13:31;10.63;;;5.53;;
11123;SDS011;5616;42.692;23.312;2023-04-01T02:16:06;11.47;;;5.37;;
11123;SDS011;5616;42.692;23.312;2023-04-01T02:18:38;10.93;;;5.57;;
11123;SDS011;5616;42.692;23.312;2023-04-01T02:21:07;9.60;;;5.67;;
11123;SDS011;5616;42.692;23.312;2023-04-01T02:23:35;9.77;;;5.87;;
11123;SDS011;5616;42.692;23.312;2023-04-01T02:26:03;9.90;;;5.97;;
11123;SDS011;5616;42.692;23.312;2023-04-01T02:28:33;9.27;;;5.30;;
11123;SDS011;5616;42.692;23.312;2023-04-01T02:31:00;10.00;;;5.80;;
11123;SDS011;5616;42.692;23.312;2023-04-01T02:33:28;9.23;;;5.67;;
11123;SDS011;5616;42.692;23.312;2023-04-01T02:35:57;8.87;;;5.40;;
11123;SDS011;5616;42.692;23.312;2023-04-01T02:38:26;13.10;;;6.00;;
11123;SDS011;5616;42.692;23.312;2023-04-01T02:40:56;13.27;;;5.80;;
11123;SDS011;5616;42.692;23.312;2023-04-01T02:43:25;15.67;;;6.30;;
11123;SDS011;5616;42.692;23.312;2023-04-01T02:45:52;12.50;;;6.00;;
11123;SDS011;5616;42.692;23.312;2023-04-01T02:48:19;14.07;;;6.20;;
11123;SDS011;5616;42.692;23.312;2023-04-01T02:50:46;11.33;;;5.90;;
11123;SDS011;5616;42.692;23.312;2023-04-01T02:53:13;9.33;;;5.80;;
11123;SDS011;5616;42.692;23.312;2023-04-01T02:55:41;11.93;;;6.33;;
11123;SDS011;5616;42.692;23.312;2023-04-01T02:58:10;9.15;;;6.15;;
11123;SDS011;5616;42.692;23.312;2023-04-01T03:00:37;14.90;;;7.13;;
11123;SDS011;5616;42.692;23.312;2023-04-01T03:03:03;14.20;;;7.13;;
11123;SDS011;5616;42.692;23.312;2023-04-01T03:05:30;13.73;;;6.87;;
11123;SDS011;5616;42.692;23.312;2023-04-01T03:07:57;13.10;;;6.63;;
11123;SDS011;5616;42.692;23.312;2023-04-01T03:10:24;15.17;;;6.80;;
11123;SDS011;5616;42.692;23.312;2023-04-01T03:12:52;13.83;;;7.63;;
11123;SDS011;5616;42.692;23.312;2023-04-01T03:15:19;14.57;;;7.57;;
11123;SDS011;5616;42.692;23.312;2023-04-01T03:17:46;12.57;;;7.30;;
11123;SDS011;5616;42.692;23.312;2023-04-01T03:20:13;11.10;;;7.23;;
11123;SDS011;5616;42.692;23.312;2023-04-01T03:22:42;19.67;;;7.40;;
11123;SDS011;5616;42.692;23.312;2023-04-01T03:25:09;12.60;;;7.93;;
11123;SDS011;5616;42.692;23.312;2023-04-01T03:27:37;11.43;;;8.03;;
11123;SDS011;5616;42.692;23.312;2023-04-01T03:30:06;12.30;;;8.30;;
11123;SDS011;5616;42.692;23.312;2023-04-01T03:32:41;15.47;;;8.20;;
11123;SDS011;5616;42.692;23.312;2023-04-01T03:35:09;11.60;;;8.60;;
11123;SDS011;5616;42.692;23.312;2023-04-01T03:37:36;12.07;;;8.23;;
11123;SDS011;5616;42.692;23.312;2023-04-01T03:40:04;12.30;;;8.70;;
11123;SDS011;5616;42.692;23.312;2023-04-01T03:42:31;13.50;;;8.53;;
11123;SDS011;5616;42.692;23.312;2023-04-01T03:44:58;13.53;;;8.33;;
11123;SDS011;5616;42.692;23.312;2023-04-01T03:47:26;13.27;;;7.83;;
11123;SDS011;5616;42.692;23.312;2023-04-01T03:49:53;17.47;;;10.77;;
11123;SDS011;5616;42.692;23.312;2023-04-01T03:52:20;18.43;;;10.63;;
11123;SDS011;5616;42.692;23.312;2023-04-01T03:54:47;12.53;;;8.73;;
11123;SDS011;5616;42.692;23.312;2023-04-01T03:57:14;14.93;;;7.40;;
11123;SDS011;5616;42.692;23.312;2023-04-01T03:59:41;11.50;;;7.97;;
11123;SDS011;5616;42.692;23.312;2023-04-01T04:02:08;13.40;;;7.97;;
11123;SDS011;5616;42.692;23.312;2023-04-01T04:04:37;12.87;;;8.07;;
11123;SDS011;5616;42.692;23.312;2023-04-01T04:07:04;15.53;;;8.50;;
11123;SDS011;5616;42.692;23.312;2023-04-01T04:09:46;12.90;;;7.63;;
11123;SDS011;5616;42.692;23.312;2023-04-01T04:12:13;12.03;;;7.70;;
11123;SDS011;5616;42.692;23.312;2023-04-01T04:14:40;14.00;;;7.20;;
11123;SDS011;5616;42.692;23.312;2023-04-01T04:17:09;16.13;;;7.37;;
11123;SDS011;5616;42.692;23.312;2023-04-01T04:19:40;9.23;;;7.37;;
11123;SDS011;5616;42.692;23.312;2023-04-01T04:22:07;13.63;;;7.13;;
11123;SDS011;5616;42.692;23.312;2023-04-01T04:24:34;11.77;;;6.83;;
11123;SDS011;5616;42.692;23.312;2023-04-01T04:27:06;10.90;;;6.53;;
11123;SDS011;5616;42.692;23.312;2023-04-01T04:29:36;12.33;;;7.27;;
11123;SDS011;5616;42.692;23.312;2023-04-01T04:32:04;13.43;;;6.97;;
11123;SDS011;5616;42.692;23.312;2023-04-01T04:34:31;13.00;;;6.63;;
11123;SDS011;5616;42.692;23.312;2023-04-01T04:36:59;12.20;;;6.67;;
11123;SDS011;5616;42.692;23.312;2023-04-01T04:39:30;12.27;;;7.10;;
11123;SDS011;5616;42.692;23.312;2023-04-01T04:41:56;11.97;;;6.70;;
11123;SDS011;5616;42.692;23.312;2023-04-01T04:44:23;11.50;;;6.20;;
11123;SDS011;5616;42.692;23.312;2023-04-01T04:46:50;17.00;;;6.70;;
11123;SDS011;5616;42.692;23.312;2023-04-01T04:49:17;11.93;;;6.53;;
11123;SDS011;5616;42.692;23.312;2023-04-01T04:51:44;14.43;;;6.70;;
11123;SDS011;5616;42.692;23.312;2023-04-01T04:54:15;10.33;;;6.23;;
11123;SDS011;5616;42.692;23.312;2023-04-01T04:56:50;14.40;;;6.30;;
11123;SDS011;5616;42.692;23.312;2023-04-01T04:59:17;16.10;;;6.97;;
11123;SDS011;5616;42.692;23.312;2023-04-01T05:01:51;12.17;;;6.63;;
11123;SDS011;5616;42.692;23.312;2023-04-01T05:04:18;10.90;;;6.57;;
11123;SDS011;5616;42.692;23.312;2023-04-01T05:06:44;10.77;;;5.07;;
11123;SDS011;5616;42.692;23.312;2023-04-01T05:09:12;10.47;;;5.53;;
11123;SDS011;5616;42.692;23.312;2023-04-01T05:11:41;9.20;;;5.60;;
11123;SDS011;5616;42.692;23.312;2023-04-01T05:14:11;9.63;;;5.90;;
11123;SDS011;5616;42.692;23.312;2023-04-01T05:16:40;11.10;;;5.67;;
11123;SDS011;5616;42.692;23.312;2023-04-01T05:19:07;9.37;;;5.20;;
11123;SDS011;5616;42.692;23.312;2023-04-01T05:21:33;8.93;;;4.87;;
11123;SDS011;5616;42.692;23.312;2023-04-01T05:24:00;6.53;;;5.10;;
11123;SDS011;5616;42.692;23.312;2023-04-01T05:26:30;12.70;;;6.03;;
11123;SDS011;5616;42.692;23.312;2023-04-01T05:28:59;11.77;;;6.47;;
11123;SDS011;5616;42.692;23.312;2023-04-01T05:31:26;48.30;;;21.20;;
11123;SDS011;5616;42.692;23.312;2023-04-01T05:33:53;28.37;;;12.40;;
11123;SDS011;5616;42.692;23.312;2023-04-01T05:36:20;14.83;;;7.50;;
11123;SDS011;5616;42.692;23.312;2023-04-01T05:38:47;8.63;;;5.20;;
11123;SDS011;5616;42.692;23.312;2023-04-01T05:41:16;13.90;;;6.20;;
11123;SDS011;5616;42.692;23.312;2023-04-01T05:43:45;13.40;;;6.33;;
11123;SDS011;5616;42.692;23.312;2023-04-01T05:46:45;14.23;;;6.47;;
11123;SDS011;5616;42.692;23.312;2023-04-01T05:49:20;13.13;;;8.27;;
11123;SDS011;5616;42.692;23.312;2023-04-01T05:51:48;15.03;;;8.07;;
11123;SDS011;5616;42.692;23.312;2023-04-01T05:54:17;11.90;;;5.60;;
11123;SDS011;5616;42.692;23.312;2023-04-01T05:56:44;14.70;;;7.60;;
11123;SDS011;5616;42.692;23.312;2023-04-01T05:59:11;8.97;;;5.97;;
11123;SDS011;5616;42.692;23.312;2023-04-01T06:01:39;8.67;;;5.40;;
11123;SDS011;5616;42.692;23.312;2023-04-01T06:04:09;20.17;;;10.10;;
11123;SDS011;5616;42.692;23.312;2023-04-01T06:06:39;13.93;;;6.80;;
11123;SDS011;5616;42.692;23.312;2023-04-01T06:09:12;16.37;;;6.33;;
11123;SDS011;5616;42.692;23.312;2023-04-01T06:11:49;9.63;;;5.07;;
11123;SDS011;5616;42.692;23.312;2023-04-01T06:14:34;6.77;;;4.20;;
11123;SDS011;5616;42.692;23.312;2023-04-01T06:17:16;7.37;;;4.03;;
11123;SDS011;5616;42.692;23.312;2023-04-01T06:19:56;6.37;;;4.13;;
11123;SDS011;5616;42.692;23.312;2023-04-01T06:22:37;6.30;;;3.87;;
11123;SDS011;5616;42.692;23.312;2023-04-01T06:28:22;10.40;;;3.97;;
11123;SDS011;5616;42.692;23.312;2023-04-01T06:31:10;8.47;;;3.17;;
11123;SDS011;5616;42.692;23.312;2023-04-01T06:33:47;8.23;;;3.80;;
11123;SDS011;5616;42.692;23.312;2023-04-01T06:36:45;8.43;;;3.80;;
11123;SDS011;5616;42.692;23.312;2023-04-01T06:39:30;8.23;;;3.90;;
11123;SDS011;5616;42.692;23.312;2023-04-01T06:42:09;7.87;;;3.83;;
11123;SDS011;5616;42.692;23.312;2023-04-01T06:44:49;7.40;;;3.90;;
11123;SDS011;5616;42.692;23.312;2023-04-01T06:47:47;8.83;;;4.50;;
11123;SDS011;5616;42.692;23.312;2023-04-01T06:50:44;5.83;;;4.20;;
11123;SDS011;5616;42.692;23.312;2023-04-01T06:53:42;11.17;;;4.20;;
11123;SDS011;5616;42.692;23.312;2023-04-01T06:56:34;6.97;;;3.90;;
11123;SDS011;5616;42.692;23.312;2023-04-01T06:59:22;9.07;;;3.90;;
11123;SDS011;5616;42.692;23.312;2023-04-01T07:01:53;8.53;;;4.03;;
11123;SDS011;5616;42.692;23.312;2023-04-01T07:04:24;6.73;;;3.97;;
11123;SDS011;5616;42.692;23.312;2023-04-01T07:06:57;11.57;;;4.90;;
11123;SDS011;5616;42.692;23.312;2023-04-01T07:09:28;9.68;;;4.45;;
11123;SDS011;5616;42.692;23.312;2023-04-01T07:12:18;7.50;;;3.97;;
11123;SDS011;5616;42.692;23.312;2023-04-01T07:15:28;7.40;;;4.40;;
11123;SDS011;5616;42.692;23.312;2023-04-01T07:18:03;16.67;;;6.13;;
11123;SDS011;5616;42.692;23.312;2023-04-01T07:20:36;12.07;;;6.70;;
11123;SDS011;5616;42.692;23.312;2023-04-01T07:23:05;13.57;;;5.77;;
11123;SDS011;5616;42.692;23.312;2023-04-01T07:25:55;9.43;;;4.70;;
11123;SDS011;5616;42.692;23.312;2023-04-01T07:28:45;9.27;;;4.53;;
11123;SDS011;5616;42.692;23.312;2023-04-01T07:31:28;7.07;;;5.10;;
11123;SDS011;5616;42.692;23.312;2023-04-01T07:34:05;9.23;;;5.07;;
11123;SDS011;5616;42.692;23.312;2023-04-01T07:36:42;13.37;;;4.47;;
11123;SDS011;5616;42.692;23.312;2023-04-01T07:39:17;13.17;;;4.50;;
11123;SDS011;5616;42.692;23.312;2023-04-01T07:42:04;7.83;;;4.47;;
11123;SDS011;5616;42.692;23.312;2023-04-01T07:44:42;8.37;;;4.13;;
11123;SDS011;5616;42.692;23.312;2023-04-01T07:47:30;8.90;;;4.47;;
11123;SDS011;5616;42.692;23.312;2023-04-01T07:50:10;8.47;;;5.20;;
11123;SDS011;5616;42.692;23.312;2023-04-01T07:52:48;10.47;;;5.10;;
11123;SDS011;5616;42.692;23.312;2023-04-01T07:55:26;8.87;;;4.83;;
11123;SDS011;5616;42.692;23.312;2023-04-01T07:58:02;10.23;;;4.57;;
11123;SDS011;5616;42.692;23.312;2023-04-01T08:00:42;10.80;;;5.07;;
11123;SDS011;5616;42.692;23.312;2023-04-01T08:03:29;9.20;;;4.70;;
11123;SDS011;5616;42.692;23.312;2023-04-01T08:06:06;9.17;;;4.47;;
11123;SDS011;5616;42.692;23.312;2023-04-01T08:08:43;9.13;;;5.03;;
11123;SDS011;5616;42.692;23.312;2023-04-01T08:11:43;7.90;;;4.63;;
11123;SDS011;5616;42.692;23.312;2023-04-01T08:14:46;13.50;;;5.27;;
11123;SDS011;5616;42.692;23.312;2023-04-01T08:17:41;10.83;;;4.30;;
11123;SDS011;5616;42.692;23.312;2023-04-01T08:20:18;6.57;;;4.47;;
11123;SDS011;5616;42.692;23.312;2023-04-01T08:22:53;8.17;;;4.17;;
11123;SDS011;5616;42.692;23.312;2023-04-01T08:25:30;9.53;;;4.73;;
11123;SDS011;5616;42.692;23.312;2023-04-01T08:28:02;7.30;;;4.17;;
11123;SDS011;5616;42.692;23.312;2023-04-01T08:30:40;12.37;;;4.33;;
11123;SDS011;5616;42.692;23.312;2023-04-01T08:33:12;12.10;;;4.63;;
11123;SDS011;5616;42.692;23.312;2023-04-01T08:35:46;10.40;;;4.53;;
11123;SDS011;5616;42.692;23.312;2023-04-01T08:38:18;10.30;;;4.43;;
11123;SDS011;5616;42.692;23.312;2023-04-01T08:40:57;8.77;;;4.43;;
11123;SDS011;5616;42.692;23.312;2023-04-01T08:46:58;7.30;;;4.03;;
11123;SDS011;5616;42.692;23.312;2023-04-01T08:49:50;16.13;;;4.40;;
11123;SDS011;5616;42.692;23.312;2023-04-01T08:53:00;6.60;;;3.80;;
11123;SDS011;5616;42.692;23.312;2023-04-01T08:55:43;8.47;;;3.70;;
11123;SDS011;5616;42.692;23.312;2023-04-01T09:08:15;9.00;;;3.60;;
11123;SDS011;5616;42.692;23.312;2023-04-01T09:10:59;8.87;;;3.13;;
11123;SDS011;5616;42.692;23.312;2023-04-01T09:14:05;8.83;;;3.50;;
11123;SDS011;5616;42.692;23.312;2023-04-01T09:19:56;6.27;;;2.80;;
11123;SDS011;5616;42.692;23.312;2023-04-01T09:23:05;6.23;;;3.30;;
11123;SDS011;5616;42.692;23.312;2023-04-01T09:28:42;8.73;;;3.43;;
11123;SDS011;5616;42.692;23.312;2023-04-01T09:34:49;11.77;;;3.27;;
11123;SDS011;5616;42.692;23.312;2023-04-01T09:37:21;9.20;;;3.10;;
11123;SDS011;5616;42.692;23.312;2023-04-01T09:40:13;8.57;;;3.00;;
11123;SDS011;5616;42.692;23.312;2023-04-01T09:42:49;8.70;;;2.90;;
11123;SDS011;5616;42.692;23.312;2023-04-01T09:45:41;6.23;;;2.90;;
11123;SDS011;5616;42.692;23.312;2023-04-01T09:48:19;5.33;;;3.00;;
11123;SDS011;5616;42.692;23.312;2023-04-01T09:51:02;7.63;;;2.80;;
11123;SDS011;5616;42.692;23.312;2023-04-01T09:53:41;5.53;;;2.80;;
11123;SDS011;5616;42.692;23.312;2023-04-01T10:09:09;9.23;;;2.92;;
11123;SDS011;5616;42.692;23.312;2023-04-01T10:12:05;8.07;;;3.00;;
11123;SDS011;5616;42.692;23.312;2023-04-01T10:15:35;8.57;;;3.33;;
11123;SDS011;5616;42.692;23.312;2023-04-01T10:24:33;7.80;;;3.10;;
11123;SDS011;5616;42.692;23.312;2023-04-01T10:27:27;8.27;;;2.80;;
11123;SDS011;5616;42.692;23.312;2023-04-01T10:33:38;6.97;;;3.33;;
11123;SDS011;5616;42.692;23.312;2023-04-01T10:39:37;6.40;;;2.97;;
11123;SDS011;5616;42.692;23.312;2023-04-01T10:43:06;4.93;;;2.93;;
11123;SDS011;5616;42.692;23.312;2023-04-01T10:49:15;8.63;;;3.97;;
11123;SDS011;5616;42.692;23.312;2023-04-01T10:52:17;6.53;;;3.37;;
11123;SDS011;5616;42.692;23.312;2023-04-01T10:55:44;8.43;;;3.43;;
11123;SDS011;5616;42.692;23.312;2023-04-01T10:59:03;7.30;;;3.40;;
11123;SDS011;5616;42.692;23.312;2023-04-01T11:05:51;7.17;;;3.97;;
11123;SDS011;5616;42.692;23.312;2023-04-01T11:11:55;7.97;;;3.40;;
11123;SDS011;5616;42.692;23.312;2023-04-01T11:14:46;9.07;;;3.93;;
11123;SDS011;5616;42.692;23.312;2023-04-01T11:17:54;8.50;;;3.73;;
11123;SDS011;5616;42.692;23.312;2023-04-01T11:24:16;8.87;;;3.73;;
11123;SDS011;5616;42.692;23.312;2023-04-01T11:27:26;5.83;;;3.60;;
11123;SDS011;5616;42.692;23.312;2023-04-01T11:30:10;8.37;;;4.17;;
11123;SDS011;5616;42.692;23.312;2023-04-01T11:32:50;8.27;;;3.37;;
11123;SDS011;5616;42.692;23.312;2023-04-01T11:42:20;4.77;;;2.10;;
11123;SDS011;5616;42.692;23.312;2023-04-01T11:45:17;3.27;;;2.00;;
11123;SDS011;5616;42.692;23.312;2023-04-01T11:48:00;6.83;;;2.57;;
11123;SDS011;5616;42.692;23.312;2023-04-01T11:50:44;5.07;;;2.77;;
11123;SDS011;5616;42.692;23.312;2023-04-01T11:53:25;8.43;;;2.67;;
11123;SDS011;5616;42.692;23.312;2023-04-01T11:56:06;3.17;;;2.33;;
11123;SDS011;5616;42.692;23.312;2023-04-01T12:01:55;5.50;;;2.70;;
11123;SDS011;5616;42.692;23.312;2023-04-01T12:04:45;5.57;;;3.40;;
11123;SDS011;5616;42.692;23.312;2023-04-01T12:07:24;7.30;;;4.00;;
11123;SDS011;5616;42.692;23.312;2023-04-01T12:10:05;10.40;;;4.77;;
11123;SDS011;5616;42.692;23.312;2023-04-01T12:12:44;9.33;;;3.70;;
11123;SDS011;5616;42.692;23.312;2023-04-01T12:15:19;9.13;;;3.60;;
11123;SDS011;5616;42.692;23.312;2023-04-01T12:17:56;7.97;;;3.77;;
11123;SDS011;5616;42.692;23.312;2023-04-01T12:20:36;6.40;;;3.10;;
11123;SDS011;5616;42.692;23.312;2023-04-01T12:23:16;7.30;;;3.23;;
11123;SDS011;5616;42.692;23.312;2023-04-01T12:26:06;8.33;;;3.47;;
11123;SDS011;5616;42.692;23.312;2023-04-01T12:28:49;7.37;;;3.00;;
11123;SDS011;5616;42.692;23.312;2023-04-01T12:31:31;7.20;;;3.30;;
11123;SDS011;5616;42.692;23.312;2023-04-01T12:37:13;5.90;;;3.28;;
11123;SDS011;5616;42.692;23.312;2023-04-01T12:39:50;3.97;;;3.00;;
11123;SDS011;5616;42.692;23.312;2023-04-01T12:45:30;5.00;;;2.93;;
11123;SDS011;5616;42.692;23.312;2023-04-01T12:48:06;7.13;;;3.13;;
11123;SDS011;5616;42.692;23.312;2023-04-01T12:51:01;4.03;;;2.90;;
11123;SDS011;5616;42.692;23.312;2023-04-01T12:53:52;4.90;;;3.03;;
11123;SDS011;5616;42.692;23.312;2023-04-01T12:56:37;7.83;;;3.20;;
11123;SDS011;5616;42.692;23.312;2023-04-01T13:02:19;5.97;;;3.60;;
11123;SDS011;5616;42.692;23.312;2023-04-01T13:05:13;5.73;;;3.60;;
11123;SDS011;5616;42.692;23.312;2023-04-01T13:07:53;7.00;;;3.80;;
11123;SDS011;5616;42.692;23.312;2023-04-01T13:13:32;9.03;;;4.10;;
11123;SDS011;5616;42.692;23.312;2023-04-01T13:16:11;5.93;;;3.20;;
11123;SDS011;5616;42.692;23.312;2023-04-01T13:18:47;5.37;;;3.30;;
11123;SDS011;5616;42.692;23.312;2023-04-01T13:21:25;6.37;;;3.80;;
11123;SDS011;5616;42.692;23.312;2023-04-01T13:24:08;7.60;;;4.77;;
11123;SDS011;5616;42.692;23.312;2023-04-01T13:26:49;5.63;;;3.40;;
11123;SDS011;5616;42.692;23.312;2023-04-01T13:29:23;7.40;;;3.40;;
11123;SDS011;5616;42.692;23.312;2023-04-01T13:32:01;5.03;;;3.00;;
11123;SDS011;5616;42.692;23.312;2023-04-01T13:34:45;4.80;;;3.40;;
11123;SDS011;5616;42.692;23.312;2023-04-01T13:37:25;3.27;;;2.20;;
11123;SDS011;5616;42.692;23.312;2023-04-01T13:40:13;3.87;;;2.43;;
11123;SDS011;5616;42.692;23.312;2023-04-01T13:42:59;3.40;;;2.23;;
11123;SDS011;5616;42.692;23.312;2023-04-01T13:45:33;5.70;;;2.60;;
11123;SDS011;5616;42.692;23.312;2023-04-01T13:51:12;4.23;;;2.50;;
11123;SDS011;5616;42.692;23.312;2023-04-01T13:53:51;3.70;;;2.50;;
11123;SDS011;5616;42.692;23.312;2023-04-01T13:56:36;2.63;;;1.80;;
11123;SDS011;5616;42.692;23.312;2023-04-01T13:59:24;2.47;;;1.20;;
11123;SDS011;5616;42.692;23.312;2023-04-01T14:02:14;1.60;;;1.40;;
11123;SDS011;5616;42.692;23.312;2023-04-01T14:04:56;2.27;;;1.20;;
11123;SDS011;5616;42.692;23.312;2023-04-01T14:07:42;1.27;;;1.13;;
11123;SDS011;5616;42.692;23.312;2023-04-01T14:10:18;1.93;;;1.20;;
11123;SDS011;5616;42.692;23.312;2023-04-01T14:12:58;2.20;;;1.30;;
11123;SDS011;5616;42.692;23.312;2023-04-01T14:15:37;2.37;;;1.10;;
11123;SDS011;5616;42.692;23.312;2023-04-01T14:24:02;1.70;;;1.30;;
11123;SDS011;5616;42.692;23.312;2023-04-01T14:29:43;1.50;;;1.30;;
11123;SDS011;5616;42.692;23.312;2023-04-01T14:32:23;3.43;;;2.00;;
11123;SDS011;5616;42.692;23.312;2023-04-01T14:35:09;3.30;;;2.20;;
11123;SDS011;5616;42.692;23.312;2023-04-01T14:37:55;3.30;;;2.37;;
11123;SDS011;5616;42.692;23.312;2023-04-01T14:40:55;5.37;;;3.13;;
11123;SDS011;5616;42.692;23.312;2023-04-01T14:46:28;3.43;;;2.10;;
11123;SDS011;5616;42.692;23.312;2023-04-01T14:49:14;5.30;;;2.27;;
11123;SDS011;5616;42.692;23.312;2023-04-01T14:51:45;3.53;;;1.90;;
11123;SDS011;5616;42.692;23.312;2023-04-01T14:54:13;5.67;;;2.73;;
11123;SDS011;5616;42.692;23.312;2023-04-01T14:56:48;3.80;;;2.67;;
11123;SDS011;5616;42.692;23.312;2023-04-01T14:59:17;4.67;;;3.00;;
11123;SDS011;5616;42.692;23.312;2023-04-01T15:01:57;5.57;;;2.80;;
11123;SDS011;5616;42.692;23.312;2023-04-01T15:04:37;3.30;;;2.80;;
11123;SDS011;5616;42.692;23.312;2023-04-01T15:10:09;5.10;;;3.00;;
11123;SDS011;5616;42.692;23.312;2023-04-01T15:12:52;4.67;;;3.17;;
11123;SDS011;5616;42.692;23.312;2023-04-01T15:15:35;6.00;;;3.50;;
11123;SDS011;5616;42.692;23.312;2023-04-01T15:18:18;6.83;;;3.20;;
11123;SDS011;5616;42.692;23.312;2023-04-01T15:21:00;4.70;;;2.90;;
11123;SDS011;5616;42.692;23.312;2023-04-01T15:23:42;7.63;;;3.43;;
11123;SDS011;5616;42.692;23.312;2023-04-01T15:26:24;4.17;;;2.97;;
11123;SDS011;5616;42.692;23.312;2023-04-01T15:29:03;5.27;;;3.00;;
11123;SDS011;5616;42.692;23.312;2023-04-01T15:31:45;3.80;;;2.77;;
11123;SDS011;5616;42.692;23.312;2023-04-01T15:34:19;7.63;;;2.87;;
11123;SDS011;5616;42.692;23.312;2023-04-01T15:36:53;7.03;;;3.20;;
11123;SDS011;5616;42.692;23.312;2023-04-01T15:39:29;5.40;;;2.87;;
11123;SDS011;5616;42.692;23.312;2023-04-01T15:42:15;6.83;;;3.10;;
11123;SDS011;5616;42.692;23.312;2023-04-01T15:44:54;4.57;;;2.40;;
11123;SDS011;5616;42.692;23.312;2023-04-01T15:47:36;3.63;;;2.83;;
11123;SDS011;5616;42.692;23.312;2023-04-01T15:50:23;6.33;;;1.70;;
11123;SDS011;5616;42.692;23.312;2023-04-01T15:53:03;4.68;;;1.30;;
11123;SDS011;5616;42.692;23.312;2023-04-01T15:55:41;1.83;;;1.63;;
11123;SDS011;5616;42.692;23.312;2023-04-01T15:58:28;2.87;;;2.10;;
11123;SDS011;5616;42.692;23.312;2023-04-01T16:01:23;2.80;;;2.40;;
11123;SDS011;5616;42.692;23.312;2023-04-01T16:03:58;3.67;;;2.23;;
11123;SDS011;5616;42.692;23.312;2023-04-01T16:06:38;3.47;;;2.70;;
11123;SDS011;5616;42.692;23.312;2023-04-01T16:12:16;2.77;;;2.40;;
11123;SDS011;5616;42.692;23.312;2023-04-01T16:14:54;3.90;;;2.83;;
11123;SDS011;5616;42.692;23.312;2023-04-01T16:17:31;3.80;;;3.00;;
11123;SDS011;5616;42.692;23.312;2023-04-01T16:20:17;3.55;;;2.90;;
11123;SDS011;5616;42.692;23.312;2023-04-01T16:22:52;4.67;;;3.10;;
11123;SDS011;5616;42.692;23.312;2023-04-01T16:25:28;2.80;;;2.50;;
11123;SDS011;5616;42.692;23.312;2023-04-01T16:28:03;2.80;;;2.50;;
11123;SDS011;5616;42.692;23.312;2023-04-01T16:30:42;2.67;;;2.47;;
11123;SDS011;5616;42.692;23.312;2023-04-01T16:33:14;3.00;;;2.70;;
11123;SDS011;5616;42.692;23.312;2023-04-01T16:35:49;3.23;;;2.80;;
11123;SDS011;5616;42.692;23.312;2023-04-01T16:38:24;3.03;;;2.73;;
11123;SDS011;5616;42.692;23.312;2023-04-01T16:41:01;4.23;;;2.80;;
11123;SDS011;5616;42.692;23.312;2023-04-01T16:43:38;4.17;;;3.33;;
11123;SDS011;5616;42.692;23.312;2023-04-01T16:49:27;2.50;;;2.30;;
11123;SDS011;5616;42.692;23.312;2023-04-01T16:52:03;3.80;;;2.93;;
11123;SDS011;5616;42.692;23.312;2023-04-01T16:54:42;2.77;;;2.30;;
11123;SDS011;5616;42.692;23.312;2023-04-01T16:57:16;3.00;;;2.70;;
11123;SDS011;5616;42.692;23.312;2023-04-01T16:59:53;3.23;;;2.80;;
11123;SDS011;5616;42.692;23.312;2023-04-01T17:02:25;4.70;;;2.90;;
11123;SDS011;5616;42.692;23.312;2023-04-01T17:04:57;3.97;;;2.93;;
11123;SDS011;5616;42.692;23.312;2023-04-01T17:07:29;2.30;;;2.10;;
11123;SDS011;5616;42.692;23.312;2023-04-01T17:10:18;3.93;;;2.00;;
11123;SDS011;5616;42.692;23.312;2023-04-01T17:13:03;3.67;;;2.40;;
11123;SDS011;5616;42.692;23.312;2023-04-01T17:15:44;2.20;;;1.93;;
11123;SDS011;5616;42.692;23.312;2023-04-01T17:18:20;2.37;;;2.17;;
11123;SDS011;5616;42.692;23.312;2023-04-01T17:20:59;2.70;;;2.23;;
11123;SDS011;5616;42.692;23.312;2023-04-01T17:23:32;2.97;;;2.10;;
11123;SDS011;5616;42.692;23.312;2023-04-01T17:26:08;1.83;;;1.70;;
11123;SDS011;5616;42.692;23.312;2023-04-01T17:28:53;2.23;;;1.67;;
11123;SDS011;5616;42.692;23.312;2023-04-01T17:31:35;3.13;;;2.40;;
11123;SDS011;5616;42.692;23.312;2023-04-01T17:34:17;2.53;;;2.20;;